Time;durP1;ratioP1;P1;durP2;ratioP2;P2;SDS_P1;SDS_P2;PMS_P1;PMS_P2;Temp;Humidity;BMP_temperature;BMP_pressure;BME280_temperature;BME280_humidity;BME280_pressure;Samples;Min_cycle;Max_cycle;Signal;HPM_P1;HPM_P2
2023/06/26 00:01:17;;;;;;;5.53;2.30;;;;;;;19.81;100.00;100270.13;4969427;28;20456;-72
2023/06/26 00:03:42;;;;;;;7.07;2.95;;;;;;;19.72;100.00;100261.66;4968871;28;20050;-73
2023/06/26 00:06:08;;;;;;;6.43;2.58;;;;;;;19.39;100.00;100199.00;4968898;28;20867;-73
2023/06/26 00:08:33;;;;;;;4.85;2.55;;;;;;;19.87;100.00;100287.63;4969825;28;20384;-71
2023/06/26 00:10:59;;;;;;;5.53;3.75;;;;;;;19.87;100.00;100278.78;4968886;28;20178;-73
2023/06/26 00:13:24;;;;;;;5.57;3.15;;;;;;;19.15;100.00;100157.41;4966224;28;20043;-73
2023/06/26 00:15:51;;;;;;;6.00;2.08;;;;;;;19.34;100.00;100185.03;4965525;28;20492;-73
2023/06/26 00:18:16;;;;;;;5.93;3.80;;;;;;;19.91;100.00;100273.28;4968176;28;20043;-72
2023/06/26 00:20:42;;;;;;;5.95;2.72;;;;;;;19.29;100.00;100181.69;4969733;28;20065;-72
2023/06/26 00:23:07;;;;;;;10.55;4.60;;;;;;;19.81;100.00;100271.94;4966939;28;20035;-72
2023/06/26 00:25:35;;;;;;;4.50;3.30;;;;;;;19.87;100.00;100279.66;4967384;28;20043;-72
2023/06/26 00:28:01;;;;;;;5.85;2.88;;;;;;;19.41;100.00;100204.28;4964084;28;20054;-73
2023/06/26 00:30:27;;;;;;;7.78;3.75;;;;;;;19.75;100.00;100267.69;4968629;28;20051;-72
2023/06/26 00:32:52;;;;;;;6.10;3.03;;;;;;;19.74;100.00;100262.47;4968207;28;20034;-74
2023/06/26 00:35:18;;;;;;;4.88;3.55;;;;;;;19.75;100.00;100261.50;4968725;28;20043;-74
2023/06/26 00:37:43;;;;;;;3.72;2.40;;;;;;;18.84;100.00;100136.47;4969104;28;20074;-73
2023/06/26 00:40:09;;;;;;;7.50;3.63;;;;;;;19.73;100.00;100255.38;4966891;28;20045;-72
2023/06/26 00:42:34;;;;;;;3.95;2.42;;;;;;;19.93;100.00;100267.91;4968071;28;20046;-72
2023/06/26 00:45:00;;;;;;;6.55;3.55;;;;;;;19.96;100.00;100262.44;4968270;28;20023;-74
2023/06/26 00:47:27;;;;;;;7.35;3.40;;;;;;;19.75;100.00;100242.88;4968948;28;20561;-72
2023/06/26 00:49:54;;;;;;;4.68;2.80;;;;;;;19.15;100.00;100149.44;4964050;28;20350;-73
2023/06/26 00:52:20;;;;;;;6.55;3.95;;;;;;;19.32;100.00;100162.94;4966617;28;20082;-74
2023/06/26 00:54:46;;;;;;;7.50;3.97;;;;;;;19.92;100.00;100255.50;4966338;28;20054;-74
2023/06/26 00:57:11;;;;;;;9.38;3.17;;;;;;;19.45;100.00;100171.28;4966993;28;20050;-73
2023/06/26 00:59:38;;;;;;;6.35;4.47;;;;;;;19.45;100.00;100168.63;4968620;28;20077;-74
2023/06/26 01:02:03;;;;;;;12.52;3.58;;;;;;;19.35;100.00;100164.63;4964338;28;20514;-74
2023/06/26 01:04:32;;;;;;;11.50;3.35;;;;;;;19.80;100.00;100215.13;4967786;28;20082;-73
2023/06/26 01:06:58;;;;;;;5.60;3.30;;;;;;;19.77;100.00;100233.03;4966180;28;20043;-74
2023/06/26 01:09:26;;;;;;;6.57;3.20;;;;;;;19.74;100.00;100234.03;4972087;28;20128;-72
2023/06/26 01:11:52;;;;;;;6.95;3.45;;;;;;;19.77;100.00;100243.69;4969310;28;20031;-74
2023/06/26 01:14:18;;;;;;;7.88;3.63;;;;;;;19.90;100.00;100258.25;4967335;28;20093;-73
2023/06/26 01:16:47;;;;;;;6.05;3.60;;;;;;;19.35;100.00;100143.31;4966529;28;20133;-74
2023/06/26 01:19:28;;;;;;;6.43;3.97;;;;;;;19.88;100.00;100248.56;4967539;28;20585;-75
2023/06/26 01:22:02;;;;;;;7.97;5.40;;;;;;;19.74;100.00;100254.47;4968106;28;20505;-74
2023/06/26 01:24:33;;;;;;;5.97;3.58;;;;;;;19.68;100.00;100249.34;4968273;28;20169;-73
2023/06/26 01:27:02;;;;;;;3.60;2.47;;;;;;;19.01;100.00;100162.41;4967872;28;20035;-73
2023/06/26 01:29:30;;;;;;;15.98;3.20;;;;;;;19.39;100.00;100209.66;4950683;28;20028;-75
2023/06/26 01:31:56;;;;;;;5.93;3.78;;;;;;;19.37;100.00;100243.44;4967949;28;20474;-75
2023/06/26 01:34:21;;;;;;;4.65;2.78;;;;;;;18.87;100.00;100139.00;4967401;28;20039;-74
2023/06/26 01:36:47;;;;;;;7.88;2.72;;;;;;;19.24;100.00;100228.88;4967515;28;20049;-74
2023/06/26 01:39:17;;;;;;;8.15;3.30;;;;;;;18.53;100.00;100150.91;4966603;28;20598;-74
2023/06/26 01:41:43;;;;;;;4.05;2.20;;;;;;;18.41;100.00;100141.59;4967780;28;20043;-74
2023/06/26 01:44:22;;;;;;;2.20;1.17;;;;;;;18.88;100.00;100252.44;4968388;28;20053;-73
2023/06/26 01:47:04;;;;;;;4.32;1.83;;;;;;;18.98;100.00;100265.31;4964238;28;20046;-74
2023/06/26 01:49:41;;;;;;;3.85;2.03;;;;;;;18.97;100.00;100255.59;4971128;28;20110;-74
2023/06/26 01:52:11;;;;;;;2.53;1.13;;;;;;;18.96;100.00;100247.69;4970881;28;20047;-75
2023/06/26 01:54:46;;;;;;;3.92;2.70;;;;;;;18.82;100.00;100252.63;4969816;28;20046;-74
2023/06/26 01:57:12;;;;;;;5.20;1.60;;;;;;;18.12;100.00;100137.31;4970346;28;20530;-75
2023/06/26 01:59:41;;;;;;;5.10;2.35;;;;;;;18.23;100.00;100143.13;4971135;28;20065;-73
2023/06/26 02:02:08;;;;;;;3.72;1.80;;;;;;;18.17;100.00;100150.44;4970584;28;20047;-73
2023/06/26 02:04:33;;;;;;;1.92;1.00;;;;;;;18.28;100.00;100161.53;4971261;28;20047;-73
2023/06/26 02:06:59;;;;;;;2.20;1.08;;;;;;;18.16;100.00;100133.63;4970871;28;20061;-72
2023/06/26 02:09:24;;;;;;;3.88;1.75;;;;;;;18.93;100.00;100231.84;4971206;28;20573;-74
2023/06/26 02:11:50;;;;;;;6.15;2.55;;;;;;;19.06;100.00;100224.25;4971939;28;20041;-73
2023/06/26 02:14:15;;;;;;;2.50;1.38;;;;;;;19.21;100.00;100225.47;4970723;28;20043;-74
2023/06/26 02:16:41;;;;;;;2.70;1.42;;;;;;;19.27;100.00;100219.91;4970964;28;20082;-73
2023/06/26 02:19:06;;;;;;;3.97;2.50;;;;;;;19.31;100.00;100216.19;4970646;28;20085;-73
2023/06/26 02:21:31;;;;;;;4.05;2.00;;;;;;;19.25;100.00;100225.31;4970803;28;20047;-73
2023/06/26 02:23:57;;;;;;;4.57;1.88;;;;;;;19.22;100.00;100227.19;4970622;28;20033;-74
2023/06/26 02:26:22;;;;;;;3.25;1.70;;;;;;;18.53;100.00;100119.88;4970808;28;20035;-74
2023/06/26 02:28:48;;;;;;;3.10;1.80;;;;;;;18.54;100.00;100113.66;4970691;28;20053;-74
2023/06/26 02:31:13;;;;;;;7.28;1.73;;;;;;;19.24;100.00;100238.66;4970346;28;20574;-74
2023/06/26 02:33:39;;;;;;;3.85;2.05;;;;;;;18.89;100.00;100161.94;4970694;28;20043;-74
2023/06/26 02:36:05;;;;;;;2.35;1.60;;;;;;;19.27;100.00;100234.09;4970675;28;20416;-72
2023/06/26 02:38:30;;;;;;;2.72;1.52;;;;;;;19.31;100.00;100229.50;4969893;28;20088;-73
2023/06/26 02:40:55;;;;;;;4.28;2.40;;;;;;;18.84;100.00;100131.16;4969049;28;20129;-74
2023/06/26 02:43:21;;;;;;;3.17;1.75;;;;;;;19.37;100.00;100221.28;4970312;28;20049;-74
2023/06/26 02:45:46;;;;;;;5.70;2.40;;;;;;;19.39;100.00;100203.47;4970469;28;20058;-73
2023/06/26 02:48:12;;;;;;;4.82;1.88;;;;;;;19.49;100.00;100209.28;4970063;28;20098;-73
2023/06/26 02:50:37;;;;;;;4.40;3.40;;;;;;;19.43;100.00;100188.25;4971076;28;20065;-73
2023/06/26 02:53:03;;;;;;;4.25;1.50;;;;;;;19.49;100.00;100203.97;4970036;28;20043;-73
2023/06/26 02:55:28;;;;;;;3.78;1.40;;;;;;;19.43;100.00;100221.03;4949524;28;20042;-73
2023/06/26 02:57:53;;;;;;;3.97;1.98;;;;;;;18.77;100.00;100103.94;4969914;28;20042;-73
2023/06/26 03:00:19;;;;;;;2.78;1.45;;;;;;;18.89;100.00;100138.03;4969745;28;20046;-73
2023/06/26 03:02:45;;;;;;;4.53;2.00;;;;;;;18.72;100.00;100109.41;4970279;28;20112;-73
2023/06/26 03:05:10;;;;;;;3.90;1.67;;;;;;;18.90;100.00;100141.56;4969790;28;20055;-73
2023/06/26 03:07:35;;;;;;;4.50;2.15;;;;;;;19.23;100.00;100191.72;4970166;28;20498;-73
2023/06/26 03:10:01;;;;;;;2.45;1.50;;;;;;;19.36;100.00;100227.53;4971203;28;20051;-73
2023/06/26 03:12:26;;;;;;;4.03;2.50;;;;;;;19.35;100.00;100236.44;4969737;28;20510;-73
2023/06/26 03:14:52;;;;;;;4.97;1.90;;;;;;;19.28;100.00;100206.56;4970535;28;20027;-73
2023/06/26 03:17:17;;;;;;;3.50;2.05;;;;;;;19.02;100.00;100162.34;4969817;28;20539;-74
2023/06/26 03:19:43;;;;;;;4.15;2.80;;;;;;;19.35;100.00;100216.03;4969858;28;20054;-74
2023/06/26 03:22:08;;;;;;;2.58;1.60;;;;;;;19.37;100.00;100213.31;4969770;28;20049;-74
2023/06/26 03:24:34;;;;;;;6.85;3.17;;;;;;;19.60;100.00;100252.31;4969970;28;20072;-72
2023/06/26 03:26:59;;;;;;;6.60;4.70;;;;;;;19.65;100.00;100249.47;4967590;28;20046;-73
2023/06/26 03:29:25;;;;;;;8.68;4.65;;;;;;;19.49;100.00;100218.13;4965026;28;20165;-73
2023/06/26 03:31:51;;;;;;;5.72;3.50;;;;;;;19.50;100.00;100233.19;4969457;28;20046;-73
2023/06/26 03:34:16;;;;;;;6.18;2.92;;;;;;;19.54;100.00;100232.13;4969665;28;20411;-74
2023/06/26 03:36:42;;;;;;;6.90;4.10;;;;;;;19.69;100.00;100251.09;4969726;28;20638;-74
2023/06/26 03:39:08;;;;;;;8.10;3.58;;;;;;;19.72;100.00;100246.53;4970814;28;20030;-74
2023/06/26 03:41:33;;;;;;;7.38;3.20;;;;;;;19.11;100.00;100129.22;4969674;28;20101;-74
2023/06/26 03:44:00;;;;;;;6.03;3.55;;;;;;;19.75;100.00;100243.75;4969102;28;20193;-74
2023/06/26 03:46:26;;;;;;;7.20;3.30;;;;;;;19.41;100.00;100161.72;4969707;28;20408;-74
2023/06/26 03:48:51;;;;;;;6.53;4.10;;;;;;;19.45;100.00;100173.09;4971662;28;20081;-74
2023/06/26 03:51:17;;;;;;;3.65;2.47;;;;;;;19.36;100.00;100137.06;4964739;28;20071;-74
2023/06/26 03:53:42;;;;;;;3.47;2.20;;;;;;;19.48;100.00;100149.88;4967285;28;20038;-74
2023/06/26 03:56:08;;;;;;;5.95;2.75;;;;;;;19.98;100.00;100217.97;4963157;28;20046;-75
2023/06/26 03:58:33;;;;;;;6.10;2.58;;;;;;;19.78;100.00;100168.19;4952754;28;20082;-74
2023/06/26 04:00:59;;;;;;;5.45;3.00;;;;;;;19.45;100.00;100117.19;4970119;28;20082;-73
2023/06/26 04:03:25;;;;;;;6.15;3.13;;;;;;;19.44;100.00;100105.69;4966981;28;20514;-74
2023/06/26 04:05:50;;;;;;;6.38;3.53;;;;;;;20.08;100.00;100218.44;4964798;28;20631;-74
2023/06/26 04:08:17;;;;;;;5.97;2.78;;;;;;;20.17;100.00;100205.59;4966996;28;20039;-73
2023/06/26 04:10:45;;;;;;;5.35;2.88;;;;;;;20.28;100.00;100218.47;4969452;28;20062;-73
2023/06/26 04:13:10;;;;;;;14.73;2.67;;;;;;;20.10;100.00;100181.94;4973789;28;20038;-73
2023/06/26 04:15:36;;;;;;;11.60;3.25;;;;;;;20.00;100.00;100169.03;4968814;28;20081;-73
2023/06/26 04:18:02;;;;;;;5.53;3.03;;;;;;;19.81;100.00;100122.81;4966943;28;20135;-73
2023/06/26 04:20:28;;;;;;;7.35;3.33;;;;;;;20.39;100.00;100210.88;4968694;28;20034;-73
2023/06/26 04:22:53;;;;;;;6.35;3.95;;;;;;;20.46;100.00;100214.09;4969023;28;20065;-73
2023/06/26 04:25:19;;;;;;;5.80;3.15;;;;;;;20.48;100.00;100209.56;4969186;28;20035;-74
2023/06/26 04:27:44;;;;;;;5.55;2.03;;;;;;;20.21;100.00;100180.53;4962585;28;20051;-73
2023/06/26 04:30:12;;;;;;;4.45;2.85;;;;;;;20.46;100.00;100200.78;4967161;28;20041;-72
2023/06/26 04:32:37;;;;;;;4.78;2.50;;;;;;;20.32;100.00;100204.06;4967596;28;20769;-73
2023/06/26 04:35:02;;;;;;;3.83;2.33;;;;;;;20.51;100.00;100198.78;4966727;28;20116;-72
2023/06/26 04:37:28;;;;;;;3.72;2.40;;;;;;;20.63;100.00;100186.75;4967984;28;20050;-75
2023/06/26 04:39:53;;;;;;;7.97;3.35;;;;;;;20.70;100.00;100187.31;4966974;28;20479;-74
2023/06/26 04:42:21;;;;;;;6.13;2.58;;;;;;;20.67;100.00;100180.31;4961084;28;20042;-74
2023/06/26 04:44:47;;;;;;;9.30;3.88;;;;;;;20.25;100.00;100082.69;4964543;28;20031;-74
2023/06/26 04:47:14;;;;;;;6.72;3.47;;;;;;;20.93;100.00;100179.13;4966576;28;20059;-74
2023/06/26 04:49:43;;;;;;;5.45;2.92;;;;;;;20.33;100.00;100087.69;4965933;28;20507;-73
2023/06/26 04:52:08;;;;;;;5.18;2.55;;;;;;;20.58;100.00;100178.97;4964667;28;20047;-73
2023/06/26 04:54:34;;;;;;;5.03;2.97;;;;;;;20.39;100.00;100090.94;4965986;28;20047;-73
2023/06/26 04:56:59;;;;;;;4.88;2.83;;;;;;;20.29;100.00;100091.41;4964656;28;20047;-73
2023/06/26 04:59:25;;;;;;;4.38;3.13;;;;;;;20.89;100.00;100174.88;4967803;28;20392;-73
2023/06/26 05:01:52;;;;;;;4.05;1.98;;;;;;;21.09;100.00;100184.59;4969163;28;20046;-74
2023/06/26 05:04:17;;;;;;;5.20;2.40;;;;;;;20.74;100.00;100087.56;4967118;28;20150;-74
2023/06/26 05:06:43;;;;;;;5.63;2.53;;;;;;;21.05;100.00;100165.22;4966401;28;20046;-75
2023/06/26 05:09:08;;;;;;;6.00;3.80;;;;;;;20.46;100.00;100080.81;4966250;28;20050;-74
2023/06/26 05:11:34;;;;;;;6.68;2.40;;;;;;;20.65;100.00;100087.09;4967909;28;20046;-75
2023/06/26 05:13:59;;;;;;;3.65;2.00;;;;;;;21.17;100.00;100173.59;4965677;28;20070;-75
2023/06/26 05:16:25;;;;;;;6.05;2.58;;;;;;;20.51;100.00;100068.19;4965317;28;20101;-76
2023/06/26 05:18:50;;;;;;;5.28;4.05;;;;;;;20.98;100.00;100153.09;4966489;28;20042;-76
2023/06/26 05:21:16;;;;;;;7.65;3.13;;;;;;;20.83;100.00;100128.00;4967343;28;20121;-75
2023/06/26 05:23:44;;;;;;;5.55;2.67;;;;;;;21.16;100.00;100196.72;4965853;28;20057;-75
2023/06/26 05:26:10;;;;;;;5.45;1.85;;;;;;;21.24;100.00;100209.72;4969571;28;20057;-74
2023/06/26 05:28:37;;;;;;;5.28;2.67;;;;;;;21.29;100.00;100200.53;4967597;28;20503;-75
2023/06/26 05:31:04;;;;;;;12.55;2.63;;;;;;;21.32;100.00;100201.34;4967081;28;20046;-75
2023/06/26 05:33:31;;;;;;;6.95;2.63;;;;;;;21.18;100.00;100167.28;4965552;28;20065;-75
2023/06/26 05:35:58;;;;;;;4.80;2.50;;;;;;;21.20;100.00;100176.09;4965388;28;20066;-74
2023/06/26 05:38:24;;;;;;;3.60;2.10;;;;;;;20.99;100.00;100105.94;4961026;28;20035;-76
2023/06/26 05:40:50;;;;;;;4.50;2.30;;;;;;;20.94;100.00;100108.84;4963262;28;20058;-76
2023/06/26 05:43:16;;;;;;;5.00;2.75;;;;;;;21.68;100.00;100202.25;4965027;28;20568;-75
2023/06/26 05:45:41;;;;;;;6.15;2.67;;;;;;;21.52;100.00;100201.28;4959812;28;21321;-75
2023/06/26 05:48:07;;;;;;;2.85;1.95;;;;;;;20.74;100.00;100109.75;4965302;28;20530;-80
2023/06/26 05:50:33;;;;;;;4.38;2.25;;;;;;;21.41;100.00;100188.44;4961588;28;20043;-77
2023/06/26 05:53:00;;;;;;;9.82;2.97;;;;;;;21.57;100.00;100196.56;4961559;28;20126;-74
2023/06/26 05:55:26;;;;;;;5.43;2.78;;;;;;;21.21;100.00;100108.44;4958056;28;20803;-75
2023/06/26 05:57:52;;;;;;;4.35;1.88;;;;;;;21.28;100.00;100204.16;4964303;28;20043;-75
2023/06/26 06:00:18;;;;;;;6.65;2.85;;;;;;;20.52;100.00;100072.56;4966288;28;20047;-75
2023/06/26 06:02:44;;;;;;;4.72;2.60;;;;;;;20.87;100.00;100203.41;4967778;28;20030;-76
2023/06/26 06:05:09;;;;;;;3.95;2.38;;;;;;;20.30;100.00;100133.09;4970127;28;20047;-76
2023/06/26 06:07:35;;;;;;;6.22;2.67;;;;;;;20.20;100.00;100146.81;4968861;28;20130;-75
2023/06/26 06:10:03;;;;;;;7.95;3.10;;;;;;;20.44;100.00;100136.03;4969475;28;20578;-75
2023/06/26 06:12:29;;;;;;;5.13;2.70;;;;;;;20.32;100.00;100126.78;4969763;28;20093;-74
2023/06/26 06:14:56;;;;;;;10.63;3.38;;;;;;;20.77;100.00;100226.13;4970314;28;20538;-76
2023/06/26 06:17:22;;;;;;;6.55;2.78;;;;;;;20.94;100.00;100214.69;4969674;28;20070;-75
2023/06/26 06:19:47;;;;;;;4.22;2.03;;;;;;;20.53;100.00;100130.25;4968951;28;20136;-74
2023/06/26 06:22:13;;;;;;;4.93;3.13;;;;;;;21.05;100.00;100220.38;4970501;28;20043;-74
2023/06/26 06:24:38;;;;;;;5.40;3.38;;;;;;;21.29;100.00;100226.38;4969914;28;20047;-71
2023/06/26 06:27:04;;;;;;;8.52;2.72;;;;;;;21.50;100.00;100237.84;4963821;28;20033;-71
2023/06/26 06:29:29;;;;;;;5.95;2.80;;;;;;;20.65;100.00;100136.88;4965988;28;20730;-70
2023/06/26 06:31:56;;;;;;;9.68;4.18;;;;;;;20.80;100.00;100112.16;4969915;28;20086;-69
2023/06/26 06:34:21;;;;;;;8.10;4.60;;;;;;;21.12;100.00;100219.16;4969910;28;20043;-70
2023/06/26 06:36:46;;;;;;;8.57;4.63;;;;;;;21.49;100.00;100234.31;4970040;28;20046;-70
2023/06/26 06:39:12;;;;;;;7.50;4.18;;;;;;;20.96;100.00;100130.97;4969565;28;20671;-70
2023/06/26 06:41:38;;;;;;;4.75;2.65;;;;;;;21.54;100.00;100234.13;4967713;28;20078;-70
2023/06/26 06:44:04;;;;;;;10.25;4.07;;;;;;;21.30;100.00;100220.06;4968827;28;20055;-70
2023/06/26 06:46:29;;;;;;;4.57;2.88;;;;;;;21.20;100.00;100234.81;4967253;28;20057;-71
2023/06/26 06:48:56;;;;;;;8.25;5.47;;;;;;;20.91;100.00;100162.34;4965141;28;20042;-71
2023/06/26 06:51:22;;;;;;;11.63;6.82;;;;;;;20.87;100.00;100136.75;4965278;28;20055;-70
2023/06/26 06:53:47;;;;;;;6.57;3.38;;;;;;;20.98;100.00;100206.47;4970040;28;20085;-70
2023/06/26 06:56:13;;;;;;;12.27;9.57;;;;;;;21.27;100.00;100221.09;4964739;28;20039;-69
2023/06/26 06:58:40;;;;;;;16.42;3.97;;;;;;;21.10;100.00;100178.34;4966988;28;20034;-70
2023/06/26 07:01:05;;;;;;;4.47;2.85;;;;;;;21.03;100.00;100164.41;4969208;28;20820;-69
2023/06/26 07:03:31;;;;;;;10.27;4.78;;;;;;;21.42;100.00;100227.56;4969437;28;20034;-70
2023/06/26 07:05:56;;;;;;;7.72;3.67;;;;;;;21.07;100.00;100178.47;4968126;28;20050;-70
2023/06/26 07:08:22;;;;;;;6.05;4.78;;;;;;;21.35;100.00;100254.56;4966088;28;20070;-70
2023/06/26 07:10:47;;;;;;;7.28;3.45;;;;;;;21.18;100.00;100240.19;4969545;28;20047;-70
2023/06/26 07:13:13;;;;;;;5.72;3.58;;;;;;;21.32;100.00;100270.72;4970825;28;20130;-68
2023/06/26 07:15:38;;;;;;;15.15;6.30;;;;;;;21.34;100.00;100275.06;4968035;28;20045;-69
2023/06/26 07:18:04;;;;;;;15.13;11.13;;;;;;;20.96;100.00;100179.00;4969665;28;20038;-70
2023/06/26 07:20:29;;;;;;;6.90;4.43;;;;;;;21.15;100.00;100208.34;4969621;28;20126;-70
2023/06/26 07:22:55;;;;;;;23.02;16.05;;;;;;;21.76;100.00;100249.09;4968596;28;20051;-70
2023/06/26 07:25:20;;;;;;;7.28;3.88;;;;;;;21.82;100.00;100260.34;4972097;28;20058;-71
2023/06/26 07:27:46;;;;;;;6.22;4.60;;;;;;;21.70;100.00;100248.44;4964206;28;20058;-70
2023/06/26 07:30:12;;;;;;;8.70;6.40;;;;;;;22.00;100.00;100273.72;4969327;28;20483;-71
2023/06/26 07:32:38;;;;;;;7.05;4.15;;;;;;;22.00;100.00;100268.38;4968054;28;20084;-70
2023/06/26 07:35:04;;;;;;;6.25;3.80;;;;;;;21.63;100.00;100168.69;4969085;28;20120;-70
2023/06/26 07:37:30;;;;;;;6.82;4.85;;;;;;;22.16;100.00;100234.59;4968083;28;20047;-71
2023/06/26 07:39:57;;;;;;;6.80;5.22;;;;;;;22.08;100.00;100223.44;4968875;28;20077;-71
2023/06/26 07:42:22;;;;;;;8.23;4.38;;;;;;;21.70;100.00;100154.09;4967407;28;20046;-70
2023/06/26 07:44:49;;;;;;;20.83;12.82;;;;;;;22.63;100.00;100241.13;4960920;28;20475;-69
2023/06/26 07:47:15;;;;;;;13.27;9.43;;;;;;;22.85;100.00;100204.25;4966515;28;20510;-70
2023/06/26 07:49:41;;;;;;;7.15;5.65;;;;;;;22.29;100.00;100135.97;4965364;28;20054;-69
2023/06/26 07:52:06;;;;;;;5.18;3.38;;;;;;;22.69;100.00;100216.72;4963509;28;20062;-69
2023/06/26 07:54:32;;;;;;;7.55;4.63;;;;;;;22.62;100.00;100207.31;4967204;28;20078;-67
2023/06/26 07:56:59;;;;;;;6.07;4.38;;;;;;;22.62;100.00;100146.66;4969998;28;20096;-69
2023/06/26 07:59:27;;;;;;;7.80;3.20;;;;;;;22.68;100.00;100218.53;4958550;28;20038;-69
2023/06/26 08:01:56;;;;;;;5.07;4.47;;;;;;;22.23;100.00;100128.25;4962326;28;20035;-70
2023/06/26 08:04:25;;;;;;;6.03;3.15;;;;;;;23.31;100.00;100217.78;4962569;28;20137;-70
2023/06/26 08:06:55;;;;;;;12.70;3.67;;;;;;;23.62;100.00;100207.16;4967504;28;20058;-75
2023/06/26 08:09:23;;;;;;;7.28;3.22;;;;;;;23.07;100.00;100200.44;4961585;28;20108;-76
2023/06/26 08:11:48;;;;;;;4.50;3.00;;;;;;;22.77;100.00;100116.38;4960461;28;20085;-75
2023/06/26 08:14:15;;;;;;;5.60;1.90;;;;;;;23.63;100.00;100188.31;4965297;28;20125;-76
2023/06/26 08:16:46;;;;;;;5.82;2.95;;;;;;;23.62;100.00;100158.94;4970164;28;20142;-78
2023/06/26 08:19:16;;;;;;;7.25;3.55;;;;;;;24.00;100.00;100211.19;4965214;28;20073;-77
2023/06/26 08:21:43;;;;;;;6.35;3.70;;;;;;;24.16;100.00;100205.78;4967275;28;20043;-75
2023/06/26 08:24:18;;;;;;;7.18;2.72;;;;;;;23.49;100.00;100060.56;4975478;28;20059;-77
2023/06/26 08:26:46;;;;;;;5.45;3.58;;;;;;;23.70;100.00;100120.03;4973757;28;20062;-77
2023/06/26 08:29:11;;;;;;;4.45;2.13;;;;;;;24.01;100.00;100210.22;4975548;28;20096;-75
2023/06/26 08:31:38;;;;;;;4.78;2.42;;;;;;;23.69;100.00;100187.09;4967606;28;20046;-76
2023/06/26 08:34:04;;;;;;;3.90;2.50;;;;;;;23.61;100.00;100176.81;4969741;28;20075;-76
2023/06/26 08:36:32;;;;;;;5.97;3.35;;;;;;;23.88;100.00;100190.47;4967697;28;20601;-76
2023/06/26 08:38:58;;;;;;;3.65;2.22;;;;;;;23.95;100.00;100182.91;4965556;28;20062;-76
2023/06/26 08:41:24;;;;;;;8.80;2.00;;;;;;;23.95;100.00;100190.94;4966548;28;20557;-76
2023/06/26 08:43:52;;;;;;;4.55;2.50;;;;;;;23.23;100.00;100104.94;4976239;28;20046;-75
2023/06/26 08:46:18;;;;;;;2.95;1.50;;;;;;;23.55;100.00;100105.75;4971832;28;20148;-75
2023/06/26 08:48:53;;;;;;;2.92;1.15;;;;;;;24.31;100.00;100130.72;4976613;28;20070;-77
2023/06/26 08:51:21;;;;;;;2.95;1.20;;;;;;;24.51;100.00;100153.63;4975955;28;20980;-76
2023/06/26 08:53:56;;;;;;;4.25;2.15;;;;;;;24.61;100.00;100139.56;4969634;28;20073;-76
2023/06/26 08:56:22;;;;;;;3.00;1.83;;;;;;;25.22;100.00;100148.22;4968131;28;20110;-76
2023/06/26 08:58:49;;;;;;;2.42;1.08;;;;;;;25.36;100.00;100181.41;4955000;28;20038;-76
2023/06/26 09:01:17;;;;;;;4.07;1.75;;;;;;;25.18;100.00;100132.41;4967038;28;21312;-74
2023/06/26 09:03:44;;;;;;;3.03;0.98;;;;;;;26.16;100.00;100182.31;4977623;28;20528;-76
2023/06/26 09:06:10;;;;;;;11.88;2.05;;;;;;;26.15;100.00;100125.91;4965498;28;20375;-76
2023/06/26 09:08:35;;;;;;;3.13;1.58;;;;;;;26.51;100.00;100195.16;4957089;28;20069;-76
2023/06/26 09:11:01;;;;;;;4.25;1.90;;;;;;;27.13;100.00;100187.09;4968055;28;20475;-76
2023/06/26 09:13:29;;;;;;;10.95;3.63;;;;;;;26.96;100.00;100106.69;4970930;28;20043;-76
2023/06/26 09:15:55;;;;;;;2.35;1.52;;;;;;;27.69;100.00;100189.31;4967589;28;20058;-77
2023/06/26 09:18:22;;;;;;;3.38;2.30;;;;;;;27.02;100.00;100094.59;4972785;28;20058;-76
2023/06/26 09:20:51;;;;;;;2.97;1.80;;;;;;;28.10;100.00;100187.19;4974552;28;20125;-76
2023/06/26 09:23:17;;;;;;;5.32;1.80;;;;;;;28.31;100.00;100177.44;4971417;28;20038;-77
2023/06/26 09:25:44;;;;;;;1.63;0.82;;;;;;;25.98;100.00;100208.63;4967785;28;20693;-76
2023/06/26 09:28:11;;;;;;;1.98;0.77;;;;;;;26.09;100.00;100183.69;4955186;28;20364;-76
2023/06/26 09:30:36;;;;;;;4.18;1.52;;;;;;;25.87;100.00;100168.16;4936339;28;20056;-75
2023/06/26 09:33:15;;;;;;;3.45;1.60;;;;;;;25.94;100.00;100109.44;4942942;28;20130;-76
2023/06/26 09:35:41;;;;;;;1.52;0.77;;;;;;;26.09;100.00;100113.78;4939756;28;20058;-77
2023/06/26 09:38:07;;;;;;;1.63;0.82;;;;;;;27.30;100.00;100168.88;4942239;29;20070;-75
2023/06/26 09:40:35;;;;;;;2.80;0.85;;;;;;;26.77;100.00;100117.94;4941567;28;20138;-74
2023/06/26 09:43:08;;;;;;;1.80;0.60;;;;;;;28.02;100.00;100185.06;4962366;28;20054;-77
2023/06/26 09:45:36;;;;;;;2.15;1.42;;;;;;;27.20;100.00;100092.41;4975699;28;20038;-77
2023/06/26 09:48:02;;;;;;;10.35;1.73;;;;;;;28.17;100.00;100165.00;4971885;28;20134;-78
2023/06/26 09:50:33;;;;;;;2.40;1.27;;;;;;;28.95;100.00;100151.72;4966879;28;20049;-76
2023/06/26 09:53:07;;;;;;;2.05;1.23;;;;;;;28.92;100.00;100133.91;4972061;28;20043;-76
2023/06/26 09:55:35;;;;;;;3.83;1.92;;;;;;;28.50;100.00;100098.59;4978305;28;20502;-76
2023/06/26 09:58:03;;;;;;;1.52;0.82;;;;;;;28.19;100.00;100082.09;4965849;28;20270;-77
2023/06/26 10:00:28;;;;;;;2.85;1.02;;;;;;;28.51;100.00;100113.78;4963288;28;20070;-77
2023/06/26 10:02:54;;;;;;;2.50;1.42;;;;;;;27.27;100.00;100148.41;4970839;28;20035;-76
2023/06/26 10:05:19;;;;;;;1.48;0.70;;;;;;;26.80;100.00;100130.31;4969679;28;20042;-76
2023/06/26 10:07:47;;;;;;;1.48;0.75;;;;;;;26.25;100.00;100084.84;4966137;28;20089;-75
2023/06/26 10:10:15;;;;;;;2.78;1.45;;;;;;;26.76;100.00;100178.13;4957722;28;20055;-75
2023/06/26 10:12:42;;;;;;;1.77;1.13;;;;;;;26.93;100.00;100088.06;4961066;28;20047;-75
2023/06/26 10:15:12;;;;;;;2.30;1.50;;;;;;;27.57;98.88;100060.84;4937225;28;20051;-74
2023/06/26 10:17:42;;;;;;;2.45;0.93;;;;;;;26.18;100.00;100133.78;4949169;28;20049;-75
2023/06/26 10:20:09;;;;;;;3.10;1.50;;;;;;;27.15;100.00;100136.69;4971889;28;20486;-82
2023/06/26 10:22:40;;;;;;;1.95;0.85;;;;;;;28.08;97.75;100173.81;4972459;28;20089;-82
2023/06/26 10:25:07;;;;;;;3.22;0.98;;;;;;;27.57;99.31;100157.88;4966956;28;20547;-80
2023/06/26 10:27:41;;;;;;;2.22;0.88;;;;;;;26.10;100.00;100064.38;4971933;28;20092;-84
2023/06/26 10:30:12;;;;;;;2.95;1.00;;;;;;;27.45;96.53;100137.25;4968025;28;20074;-74
2023/06/26 10:32:40;;;;;;;2.15;0.95;;;;;;;26.67;98.63;100081.91;4972983;28;20045;-74
2023/06/26 10:35:06;;;;;;;15.80;12.02;;;;;;;27.02;100.00;100143.06;4971076;28;20070;-70
2023/06/26 10:37:48;;;;;;;9.70;7.05;;;;;;;27.10;100.00;100154.16;4976697;28;20046;-69
2023/06/26 10:40:21;;;;;;;4.22;2.20;;;;;;;26.23;100.00;100013.28;4972286;28;20085;-69
2023/06/26 10:42:47;;;;;;;15.80;10.05;;;;;;;27.94;100.00;100152.44;4975575;28;20096;-70
2023/06/26 10:45:16;;;;;;;11.50;8.73;;;;;;;29.07;97.67;100150.72;4970898;28;20051;-69
2023/06/26 10:47:45;;;;;;;2.95;1.85;;;;;;;28.38;82.30;100121.13;4980770;28;20495;-70
2023/06/26 10:50:23;;;;;;;28.52;18.05;;;;;;;28.61;87.18;100117.50;4973983;28;20030;-70
2023/06/26 10:53:24;;;;;;;4.55;1.63;;;;;;;28.77;80.86;100141.38;4969060;28;20516;-70
2023/06/26 10:55:59;;;;;;;2.78;2.03;;;;;;;27.38;87.61;100144.09;4964938;28;20042;-71
2023/06/26 10:58:39;;;;;;;6.93;4.22;;;;;;;27.40;98.68;100129.50;4974136;28;20046;-71
2023/06/26 11:01:21;;;;;;;11.73;9.38;;;;;;;26.41;100.00;100035.28;4975276;28;20090;-71
2023/06/26 11:04:01;;;;;;;3.93;2.43;;;;;;;25.69;95.65;100049.28;4961149;28;20569;-70
2023/06/26 11:06:27;;;;;;;5.65;3.28;;;;;;;25.99;96.13;100131.50;4969315;28;20460;-71
2023/06/26 11:09:00;;;;;;;5.57;4.05;;;;;;;26.00;96.79;100109.03;4979324;28;20054;-69
2023/06/26 11:11:53;;;;;;;6.60;4.10;;;;;;;26.26;96.41;100128.72;4978251;28;20139;-70
2023/06/26 11:14:19;;;;;;;;;;;;;;;26.52;88.19;100132.25;4976131;28;20534;-69
2023/06/26 11:16:44;;;;;;;11.48;8.95;;;;;;;26.56;100.00;100066.53;4979762;28;19924;-69